createdAt,value
2018-08-25T00:00:18.670Z,14.00
2018-08-25T00:02:47.119Z,14.47
2018-08-25T00:05:15.514Z,13.13
2018-08-25T00:07:43.829Z,13.50
2018-08-25T00:10:12.215Z,13.20
2018-08-25T00:12:40.618Z,12.83
2018-08-25T00:15:08.979Z,13.23
2018-08-25T00:17:37.412Z,13.70
2018-08-25T00:20:12.397Z,13.37
2018-08-25T00:22:40.763Z,12.43
2018-08-25T00:25:09.183Z,13.80
2018-08-25T00:27:37.567Z,14.27
2018-08-25T00:30:10.183Z,13.90
2018-08-25T00:32:38.623Z,14.57
2018-08-25T00:35:07.050Z,14.40
2018-08-25T00:37:35.434Z,14.03
2018-08-25T00:40:03.839Z,14.70
2018-08-25T00:42:32.231Z,14.27
2018-08-25T00:45:00.604Z,12.63
2018-08-25T00:47:28.972Z,14.10
2018-08-25T00:49:57.369Z,14.00
2018-08-25T00:52:25.760Z,12.30
2018-08-25T00:54:54.545Z,14.43
2018-08-25T00:57:22.982Z,14.27
2018-08-25T00:59:51.377Z,13.27
2018-08-25T01:02:19.774Z,15.60
2018-08-25T01:04:48.369Z,14.70
2018-08-25T01:07:16.845Z,15.07
2018-08-25T01:09:45.286Z,13.83
2018-08-25T01:12:13.711Z,13.80
2018-08-25T01:14:42.103Z,12.97
2018-08-25T01:17:10.471Z,14.27
2018-08-25T01:19:38.861Z,14.63
2018-08-25T01:22:07.366Z,13.73
2018-08-25T01:24:35.750Z,13.87
2018-08-25T01:27:04.074Z,13.80
2018-08-25T01:29:32.425Z,13.93
2018-08-25T01:32:00.763Z,14.53
2018-08-25T01:34:29.162Z,13.20
2018-08-25T01:36:57.637Z,14.20
2018-08-25T01:39:25.979Z,13.23
2018-08-25T01:41:54.309Z,12.93
2018-08-25T01:44:22.714Z,14.40
2018-08-25T01:46:51.235Z,14.40
2018-08-25T01:49:19.591Z,14.27
2018-08-25T01:51:48.072Z,14.73
2018-08-25T01:54:16.423Z,14.30
2018-08-25T01:56:44.850Z,14.63
2018-08-25T01:59:13.302Z,13.50
2018-08-25T02:01:41.757Z,13.00
2018-08-25T02:04:10.111Z,14.10
2018-08-25T02:06:38.435Z,13.80
2018-08-25T02:09:09.604Z,13.00
2018-08-25T02:11:38.098Z,15.00
2018-08-25T02:14:07.163Z,13.00
2018-08-25T02:16:35.595Z,13.20
2018-08-25T02:19:04.016Z,12.97
2018-08-25T02:21:32.422Z,12.50
2018-08-25T02:24:00.766Z,13.70
2018-08-25T02:26:29.124Z,13.00
2018-08-25T02:28:57.536Z,12.60
2018-08-25T02:31:25.942Z,12.87
2018-08-25T02:33:54.302Z,12.73
2018-08-25T02:36:22.596Z,12.90
2018-08-25T02:38:51.083Z,11.70
2018-08-25T02:41:19.339Z,12.20
2018-08-25T02:43:47.727Z,12.87
2018-08-25T02:46:16.085Z,12.63
2018-08-25T02:48:44.537Z,12.07
2018-08-25T02:51:12.935Z,12.80
2018-08-25T02:53:41.339Z,12.23
2018-08-25T02:56:09.675Z,12.33
2018-08-25T02:58:38.094Z,12.47
2018-08-25T03:01:07.043Z,12.60
2018-08-25T03:03:35.451Z,11.60
2018-08-25T03:06:03.869Z,12.10
2018-08-25T03:08:32.237Z,11.80
2018-08-25T03:11:00.543Z,12.80
2018-08-25T03:13:28.961Z,12.27
2018-08-25T03:15:57.371Z,11.80
2018-08-25T03:18:25.815Z,11.90
2018-08-25T03:20:54.170Z,11.07
2018-08-25T03:23:22.586Z,11.07
2018-08-25T03:25:51.103Z,13.20
2018-08-25T03:28:19.507Z,13.90
2018-08-25T03:30:48.003Z,12.23
2018-08-25T03:33:16.417Z,12.00
2018-08-25T03:35:44.883Z,12.97
2018-08-25T03:38:13.823Z,11.40
2018-08-25T03:40:42.193Z,12.13
2018-08-25T03:43:10.583Z,11.63
2018-08-25T03:45:38.928Z,12.40
2018-08-25T03:48:07.272Z,13.83
2018-08-25T03:50:35.765Z,13.50
2018-08-25T03:53:04.099Z,11.70
2018-08-25T03:55:32.539Z,11.63
2018-08-25T03:58:00.807Z,12.40
2018-08-25T04:00:29.161Z,12.73
2018-08-25T04:02:57.611Z,13.13
2018-08-25T04:05:26.095Z,13.20
2018-08-25T04:07:54.473Z,11.30
2018-08-25T04:10:22.957Z,10.97
2018-08-25T04:12:51.285Z,10.83
2018-08-25T04:15:19.613Z,10.87
2018-08-25T04:17:47.962Z,11.10
2018-08-25T04:20:16.348Z,10.77
2018-08-25T04:22:44.721Z,10.60
2018-08-25T04:25:13.133Z,10.00
2018-08-25T04:27:41.539Z,15.00
2018-08-25T04:30:09.942Z,10.30
2018-08-25T04:32:38.342Z,10.77
2018-08-25T04:35:06.698Z,10.13
2018-08-25T04:37:35.125Z,11.20
2018-08-25T04:40:03.525Z,11.20
2018-08-25T04:42:32.186Z,11.57
2018-08-25T04:45:00.583Z,10.57
2018-08-25T04:47:28.877Z,9.90
2018-08-25T04:49:57.300Z,9.90
2018-08-25T04:52:25.742Z,8.57
2018-08-25T04:54:54.075Z,8.83
2018-08-25T04:57:22.443Z,9.10
2018-08-25T04:59:50.794Z,8.70
2018-08-25T05:02:19.142Z,7.93
2018-08-25T05:04:47.503Z,9.10
2018-08-25T05:07:15.831Z,9.13
2018-08-25T05:09:44.220Z,11.03
2018-08-25T05:12:12.559Z,8.47
2018-08-25T05:14:40.923Z,8.57
2018-08-25T05:17:09.311Z,9.73
2018-08-25T05:19:37.722Z,9.93
2018-08-25T05:22:06.219Z,8.77
2018-08-25T05:24:34.545Z,9.07
2018-08-25T05:27:02.829Z,8.73
2018-08-25T05:29:31.241Z,8.73
2018-08-25T05:31:59.636Z,9.20
2018-08-25T05:34:27.977Z,8.10
2018-08-25T05:36:56.433Z,7.93
2018-08-25T05:39:24.867Z,7.80
2018-08-25T05:41:53.397Z,7.70
2018-08-25T05:44:21.849Z,8.60
2018-08-25T05:46:50.183Z,8.30
2018-08-25T05:49:18.536Z,9.80
2018-08-25T05:51:46.935Z,9.50
2018-08-25T05:54:15.386Z,8.57
2018-08-25T05:56:43.960Z,7.33
2018-08-25T05:59:12.363Z,8.37
2018-08-25T06:01:40.779Z,8.17
2018-08-25T06:04:09.160Z,8.53
2018-08-25T06:06:37.760Z,10.70
2018-08-25T06:09:09.437Z,9.80
2018-08-25T06:11:37.887Z,7.93
2018-08-25T06:14:06.434Z,9.13
2018-08-25T06:16:34.803Z,8.83
2018-08-25T06:19:03.177Z,8.77
2018-08-25T06:21:31.588Z,8.10
2018-08-25T06:24:00.095Z,9.10
2018-08-25T06:26:28.712Z,9.07
2018-08-25T06:28:57.445Z,9.43
2018-08-25T06:31:25.947Z,8.30
2018-08-25T06:33:54.535Z,7.80
2018-08-25T06:36:23.055Z,7.47
2018-08-25T06:38:51.479Z,8.07
2018-08-25T06:41:19.879Z,7.50
2018-08-25T06:43:48.272Z,7.53
2018-08-25T06:46:16.685Z,7.87
2018-08-25T06:48:45.060Z,8.00
2018-08-25T06:51:13.400Z,6.90
2018-08-25T06:53:41.797Z,7.60
2018-08-25T06:56:10.169Z,6.83
2018-08-25T06:58:38.499Z,7.97
2018-08-25T07:01:06.853Z,7.40
2018-08-25T07:03:35.243Z,6.80
2018-08-25T07:06:03.623Z,6.60
2018-08-25T07:08:31.991Z,6.20
2018-08-25T07:11:00.440Z,6.10
2018-08-25T07:13:28.873Z,6.50
2018-08-25T07:15:57.453Z,6.80
2018-08-25T07:18:25.857Z,7.17
2018-08-25T07:20:54.661Z,7.13
2018-08-25T07:23:23.019Z,7.83
2018-08-25T07:25:51.452Z,6.43
2018-08-25T07:28:19.771Z,7.83
2018-08-25T07:30:48.183Z,6.90
2018-08-25T07:33:16.634Z,7.17
2018-08-25T07:35:44.999Z,6.50
2018-08-25T07:38:13.389Z,8.60
2018-08-25T07:40:41.845Z,7.40
2018-08-25T07:43:10.228Z,7.30
2018-08-25T07:45:38.585Z,7.23
2018-08-25T07:48:06.959Z,6.67
2018-08-25T07:50:35.412Z,7.00
2018-08-25T07:53:03.782Z,6.73
2018-08-25T07:55:32.191Z,6.73
2018-08-25T07:58:00.576Z,7.23
2018-08-25T08:00:28.953Z,7.60
2018-08-25T08:02:57.393Z,7.47
2018-08-25T08:05:25.791Z,8.03
2018-08-25T08:07:54.219Z,7.77
2018-08-25T08:10:22.595Z,7.57
2018-08-25T08:12:51.026Z,6.67
2018-08-25T08:15:19.375Z,6.83
2018-08-25T08:17:47.767Z,8.33
2018-08-25T08:20:16.111Z,6.90
2018-08-25T08:22:44.513Z,9.17
2018-08-25T08:25:12.919Z,7.97
2018-08-25T08:27:41.272Z,8.83
2018-08-25T08:30:09.701Z,6.53
2018-08-25T08:32:38.205Z,5.67
2018-08-25T08:35:06.618Z,7.80
2018-08-25T08:37:35.069Z,6.47
2018-08-25T08:40:03.464Z,5.80
2018-08-25T08:42:31.878Z,8.50
2018-08-25T08:45:00.233Z,6.80
2018-08-25T08:47:28.748Z,6.40
2018-08-25T08:49:57.030Z,6.70
2018-08-25T08:52:25.376Z,6.03
2018-08-25T08:54:53.718Z,5.00
2018-08-25T08:57:22.138Z,5.70
2018-08-25T08:59:50.576Z,6.07
2018-08-25T09:02:18.981Z,4.90
2018-08-25T09:04:47.320Z,5.00
2018-08-25T09:07:15.659Z,6.20
2018-08-25T09:09:44.075Z,6.73
2018-08-25T09:12:12.547Z,9.37
2018-08-25T09:14:40.969Z,5.47
2018-08-25T09:17:09.347Z,4.33
2018-08-25T09:19:37.813Z,5.80
2018-08-25T09:22:06.476Z,6.43
2018-08-25T09:24:34.880Z,5.80
2018-08-25T09:27:03.249Z,5.87
2018-08-25T09:29:31.703Z,6.00
2018-08-25T09:32:00.053Z,5.00
2018-08-25T09:34:28.363Z,4.07
2018-08-25T09:36:57.036Z,5.23
2018-08-25T09:39:25.181Z,5.40
2018-08-25T09:41:53.553Z,5.50
2018-08-25T09:44:21.893Z,4.27
2018-08-25T09:46:50.375Z,5.57
2018-08-25T09:49:18.741Z,6.10
2018-08-25T09:51:47.141Z,6.67
2018-08-25T09:54:15.520Z,5.27
2018-08-25T09:56:43.841Z,5.93
2018-08-25T09:59:12.200Z,3.93
2018-08-25T10:01:47.253Z,5.27
2018-08-25T10:04:15.748Z,4.30
2018-08-25T10:06:44.474Z,3.17
2018-08-25T10:09:12.870Z,7.57
2018-08-25T10:11:41.171Z,5.63
2018-08-25T10:14:10.055Z,5.10
2018-08-25T10:16:38.374Z,3.70
2018-08-25T10:19:06.761Z,4.30
2018-08-25T10:21:35.191Z,5.43
2018-08-25T10:24:03.569Z,3.13
2018-08-25T10:26:31.858Z,3.10
2018-08-25T10:29:00.280Z,4.77
2018-08-25T10:31:28.659Z,5.23
2018-08-25T10:33:56.989Z,4.80
2018-08-25T10:36:25.372Z,3.93
2018-08-25T10:38:53.893Z,5.10
2018-08-25T10:41:22.250Z,6.30
2018-08-25T10:43:50.865Z,4.23
2018-08-25T10:46:19.392Z,5.40
2018-08-25T10:48:47.884Z,4.70
2018-08-25T10:51:16.311Z,4.30
2018-08-25T10:53:44.715Z,4.10
2018-08-25T10:56:13.072Z,4.33
2018-08-25T10:58:41.501Z,4.73
2018-08-25T11:01:10.134Z,6.43
2018-08-25T11:03:38.573Z,4.60
2018-08-25T11:06:07.093Z,5.87
2018-08-25T11:08:35.472Z,5.00
2018-08-25T11:11:03.999Z,4.77
2018-08-25T11:13:32.478Z,3.70
2018-08-25T11:16:00.849Z,5.20
2018-08-25T11:18:29.242Z,6.07
2018-08-25T11:20:57.567Z,5.53
2018-08-25T11:23:26.045Z,6.73
2018-08-25T11:25:54.398Z,3.70
2018-08-25T11:28:22.748Z,5.90
2018-08-25T11:30:51.191Z,6.40
2018-08-25T11:33:19.627Z,5.20
2018-08-25T11:35:48.011Z,4.53
2018-08-25T11:38:16.388Z,5.50
2018-08-25T11:40:44.864Z,6.93
2018-08-25T11:43:13.289Z,6.17
2018-08-25T11:45:41.688Z,5.30
2018-08-25T11:48:10.132Z,7.30
2018-08-25T11:50:38.520Z,4.73
2018-08-25T11:53:07.894Z,6.07
2018-08-25T11:55:36.285Z,3.90
2018-08-25T11:58:04.773Z,5.40
2018-08-25T12:00:33.113Z,4.57
2018-08-25T12:03:03.832Z,4.20
2018-08-25T12:05:31.200Z,9.40
2018-08-25T12:07:59.728Z,4.77
2018-08-25T12:10:28.197Z,7.10
2018-08-25T12:12:56.493Z,5.70
2018-08-25T12:15:24.877Z,5.40
2018-08-25T12:17:53.308Z,8.93
2018-08-25T12:20:21.649Z,4.93
2018-08-25T12:22:50.054Z,5.20
2018-08-25T12:25:18.502Z,4.43
2018-08-25T12:27:46.976Z,5.20
2018-08-25T12:30:15.342Z,5.17
2018-08-25T12:32:43.764Z,6.60
2018-08-25T12:35:12.207Z,4.70
2018-08-25T12:37:40.572Z,5.70
2018-08-25T12:40:08.963Z,4.97
2018-08-25T12:42:37.377Z,7.73
2018-08-25T12:45:05.824Z,3.50
2018-08-25T12:47:34.224Z,5.67
2018-08-25T12:50:02.592Z,5.80
2018-08-25T12:52:30.963Z,4.60
2018-08-25T12:54:59.370Z,6.70
2018-08-25T12:57:27.740Z,5.77
2018-08-25T12:59:56.067Z,8.73
2018-08-25T13:02:24.444Z,6.70
2018-08-25T13:04:52.813Z,7.57
2018-08-25T13:07:21.214Z,6.63
2018-08-25T13:09:49.653Z,8.00
2018-08-25T13:12:17.941Z,8.77
2018-08-25T13:14:46.401Z,5.57
2018-08-25T13:17:14.674Z,7.93
2018-08-25T13:19:43.103Z,5.83
2018-08-25T13:22:11.540Z,8.20
2018-08-25T13:24:39.965Z,7.27
2018-08-25T13:27:08.312Z,4.60
2018-08-25T13:29:36.710Z,5.30
2018-08-25T13:32:05.150Z,6.37
2018-08-25T13:34:36.285Z,5.77
2018-08-25T13:37:05.623Z,6.30
2018-08-25T13:39:34.079Z,4.70
2018-08-25T13:42:02.432Z,7.23
2018-08-25T13:44:30.839Z,5.67
2018-08-25T13:46:59.266Z,6.30
2018-08-25T13:49:27.706Z,8.50
2018-08-25T13:51:56.147Z,8.17
2018-08-25T13:54:24.569Z,7.63
2018-08-25T13:56:52.919Z,6.53
2018-08-25T13:59:21.230Z,6.57
2018-08-25T14:01:49.680Z,9.03
2018-08-25T14:04:18.045Z,6.80
2018-08-25T14:06:46.444Z,7.30
2018-08-25T14:09:14.761Z,11.23
2018-08-25T14:11:43.196Z,7.73
2018-08-25T14:14:11.603Z,8.27
2018-08-25T14:16:40.113Z,8.63
2018-08-25T14:19:08.471Z,7.77
2018-08-25T14:21:36.853Z,9.03
2018-08-25T14:24:05.285Z,6.47
2018-08-25T14:26:33.652Z,9.40
2018-08-25T14:29:01.976Z,9.80
2018-08-25T14:31:30.541Z,7.80
2018-08-25T14:33:58.840Z,12.00
2018-08-25T14:36:27.221Z,5.70
2018-08-25T14:38:55.564Z,5.60
2018-08-25T14:41:24.028Z,6.37
2018-08-25T14:43:52.444Z,5.63
2018-08-25T14:46:20.921Z,5.93
2018-08-25T14:48:49.347Z,7.23
2018-08-25T14:51:17.739Z,5.97
2018-08-25T14:53:46.047Z,4.33
2018-08-25T14:56:14.401Z,5.97
2018-08-25T14:58:42.686Z,6.03
2018-08-25T15:01:11.093Z,5.83
2018-08-25T15:03:39.544Z,4.77
2018-08-25T15:06:08.035Z,6.93
2018-08-25T15:08:36.490Z,4.97
2018-08-25T15:11:04.909Z,6.50
2018-08-25T15:13:33.313Z,4.47
2018-08-25T15:16:01.753Z,6.43
2018-08-25T15:18:30.579Z,7.37
2018-08-25T15:20:59.009Z,6.67
2018-08-25T15:23:27.351Z,5.03
2018-08-25T15:25:55.753Z,6.37
2018-08-25T15:28:24.185Z,8.23
2018-08-25T15:30:52.534Z,5.13
2018-08-25T15:33:20.959Z,6.20
2018-08-25T15:35:49.433Z,7.90
2018-08-25T15:38:18.531Z,7.47
2018-08-25T15:40:46.950Z,5.60
2018-08-25T15:43:15.385Z,5.57
2018-08-25T15:45:43.800Z,5.13
2018-08-25T15:48:12.143Z,7.03
2018-08-25T15:50:40.600Z,5.73
2018-08-25T15:53:08.976Z,5.40
2018-08-25T15:55:37.403Z,5.53
2018-08-25T15:58:05.956Z,5.40
2018-08-25T16:00:34.253Z,5.63
2018-08-25T16:03:02.691Z,7.03
2018-08-25T16:05:31.224Z,4.47
2018-08-25T16:07:59.609Z,4.77
2018-08-25T16:10:27.935Z,5.80
2018-08-25T16:12:56.382Z,4.37
2018-08-25T16:15:25.081Z,5.27
2018-08-25T16:17:53.535Z,5.57
2018-08-25T16:20:22.108Z,4.77
2018-08-25T16:22:50.443Z,5.00
2018-08-25T16:25:18.821Z,4.07
2018-08-25T16:27:47.254Z,5.47
2018-08-25T16:30:15.674Z,4.23
2018-08-25T16:32:44.022Z,6.53
2018-08-25T16:35:12.684Z,4.93
2018-08-25T16:37:41.023Z,6.87
2018-08-25T16:40:09.476Z,4.83
2018-08-25T16:42:37.924Z,6.70
2018-08-25T16:45:06.321Z,4.87
2018-08-25T16:47:34.686Z,5.27
2018-08-25T16:50:03.024Z,6.80
2018-08-25T16:52:31.455Z,7.03
2018-08-25T16:54:59.909Z,6.23
2018-08-25T16:57:28.263Z,4.37
2018-08-25T16:59:56.745Z,6.17
2018-08-25T17:02:25.014Z,5.70
2018-08-25T17:04:53.677Z,6.23
2018-08-25T17:07:22.046Z,5.87
2018-08-25T17:09:50.410Z,6.50
2018-08-25T17:12:18.795Z,6.07
2018-08-25T17:14:47.188Z,6.13
2018-08-25T17:17:15.565Z,5.90
2018-08-25T17:19:43.929Z,6.33
2018-08-25T17:22:12.375Z,5.30
2018-08-25T17:24:40.729Z,6.43
2018-08-25T17:27:09.205Z,9.53
2018-08-25T17:29:37.622Z,7.20
2018-08-25T17:32:05.934Z,5.63
2018-08-25T17:34:34.312Z,6.83
2018-08-25T17:37:02.763Z,7.83
2018-08-25T17:39:31.094Z,5.63
2018-08-25T17:41:59.511Z,5.33
2018-08-25T17:44:27.858Z,6.70
2018-08-25T17:46:56.260Z,5.67
2018-08-25T17:49:24.595Z,5.30
2018-08-25T17:51:52.903Z,6.90
2018-08-25T17:54:21.265Z,7.73
2018-08-25T17:56:49.647Z,5.23
2018-08-25T17:59:18.022Z,7.90
2018-08-25T18:01:46.388Z,4.77
2018-08-25T18:04:14.826Z,5.97
2018-08-25T18:06:43.184Z,5.23
2018-08-25T18:09:11.609Z,5.13
2018-08-25T18:11:39.909Z,4.83
2018-08-25T18:14:08.250Z,5.37
2018-08-25T18:16:36.601Z,4.33
2018-08-25T18:19:05.539Z,5.70
2018-08-25T18:21:33.984Z,4.60
2018-08-25T18:24:02.473Z,4.93
2018-08-25T18:26:30.850Z,5.93
2018-08-25T18:28:59.269Z,4.27
2018-08-25T18:31:27.649Z,4.93
2018-08-25T18:33:56.657Z,4.80
2018-08-25T18:36:25.041Z,6.50
2018-08-25T18:38:53.374Z,4.97
2018-08-25T18:41:21.731Z,4.93
2018-08-25T18:43:50.172Z,4.53
2018-08-25T18:46:18.592Z,5.40
2018-08-25T18:48:46.945Z,5.50
2018-08-25T18:51:15.371Z,7.60
2018-08-25T18:53:43.772Z,6.27
2018-08-25T18:56:12.204Z,5.10
2018-08-25T18:58:40.568Z,7.67
2018-08-25T19:01:08.922Z,4.47
2018-08-25T19:03:37.367Z,4.47
2018-08-25T19:06:05.800Z,6.73
2018-08-25T19:08:34.253Z,5.10
2018-08-25T19:11:02.587Z,5.13
2018-08-25T19:13:30.996Z,6.30
2018-08-25T19:15:59.453Z,5.23
2018-08-25T19:18:27.855Z,7.10
2018-08-25T19:20:57.390Z,5.17
2018-08-25T19:23:25.771Z,4.70
2018-08-25T19:25:54.166Z,4.83
2018-08-25T19:28:22.496Z,4.53
2018-08-25T19:30:50.878Z,4.73
2018-08-25T19:33:19.281Z,5.60
2018-08-25T19:35:47.715Z,10.53
2018-08-25T19:38:16.063Z,7.13
2018-08-25T19:40:44.664Z,6.80
2018-08-25T19:43:13.137Z,5.93
2018-08-25T19:45:41.562Z,5.10
2018-08-25T19:48:09.977Z,4.87
2018-08-25T19:50:38.296Z,4.50
2018-08-25T19:53:06.879Z,5.70
2018-08-25T19:55:35.207Z,5.97
2018-08-25T19:58:03.570Z,6.77
2018-08-25T20:00:32.048Z,7.97
2018-08-25T20:03:00.474Z,4.60
2018-08-25T20:05:28.879Z,5.20
2018-08-25T20:07:57.219Z,5.67
2018-08-25T20:10:25.746Z,7.90
2018-08-25T20:12:54.175Z,4.87
2018-08-25T20:15:23.367Z,6.10
2018-08-25T20:17:51.800Z,5.20
2018-08-25T20:20:20.505Z,5.57
2018-08-25T20:22:48.889Z,5.90
2018-08-25T20:25:17.259Z,6.53
2018-08-25T20:27:45.843Z,7.30
2018-08-25T20:30:14.401Z,6.97
2018-08-25T20:32:42.827Z,5.47
2018-08-25T20:35:11.243Z,9.10
2018-08-25T20:37:39.664Z,7.13
2018-08-25T20:40:08.101Z,4.97
2018-08-25T20:42:36.469Z,6.47
2018-08-25T20:45:05.295Z,4.83
2018-08-25T20:47:33.664Z,5.30
2018-08-25T20:50:02.189Z,5.30
2018-08-25T20:52:30.495Z,5.80
2018-08-25T20:54:58.916Z,5.07
2018-08-25T20:57:27.319Z,5.33
2018-08-25T20:59:55.759Z,4.87
2018-08-25T21:02:24.123Z,5.50
2018-08-25T21:04:52.524Z,5.67
2018-08-25T21:07:20.901Z,4.60
2018-08-25T21:09:49.309Z,6.73
2018-08-25T21:12:17.832Z,5.17
2018-08-25T21:14:46.211Z,4.50
2018-08-25T21:17:14.542Z,6.97
2018-08-25T21:19:42.831Z,4.60
2018-08-25T21:22:11.228Z,5.97
2018-08-25T21:24:39.553Z,5.27
2018-08-25T21:27:07.885Z,7.50
2018-08-25T21:29:36.323Z,6.23
2018-08-25T21:32:04.717Z,3.90
2018-08-25T21:34:33.037Z,3.20
2018-08-25T21:37:01.370Z,3.73
2018-08-25T21:39:29.753Z,3.37
2018-08-25T21:41:58.178Z,2.80
2018-08-25T21:44:26.589Z,4.20
2018-08-25T21:46:54.950Z,4.07
2018-08-25T21:49:23.327Z,2.60
2018-08-25T21:51:51.777Z,3.00
2018-08-25T21:54:20.199Z,4.77
2018-08-25T21:56:48.528Z,2.50
2018-08-25T21:59:16.849Z,2.20
2018-08-25T22:01:51.294Z,2.47
2018-08-25T22:04:19.696Z,4.53
2018-08-25T22:06:48.107Z,2.50
2018-08-25T22:09:16.483Z,2.97
2018-08-25T22:11:44.823Z,2.40
2018-08-25T22:14:13.253Z,2.87
2018-08-25T22:16:41.613Z,3.50
2018-08-25T22:19:10.051Z,3.50
2018-08-25T22:21:38.363Z,3.70
2018-08-25T22:24:06.799Z,3.27
2018-08-25T22:26:35.101Z,2.47
2018-08-25T22:29:03.656Z,3.03
2018-08-25T22:31:31.989Z,3.33
2018-08-25T22:34:00.306Z,2.63
2018-08-25T22:36:28.674Z,2.97
2018-08-25T22:38:57.065Z,3.33
2018-08-25T22:41:25.497Z,3.67
2018-08-25T22:43:53.791Z,3.80
2018-08-25T22:46:22.188Z,6.80
2018-08-25T22:48:50.546Z,6.77
2018-08-25T22:51:18.944Z,3.50
2018-08-25T22:53:47.288Z,3.50
2018-08-25T22:56:15.619Z,4.90
2018-08-25T22:58:44.053Z,3.40
2018-08-25T23:01:12.402Z,3.87
2018-08-25T23:03:40.749Z,3.60
2018-08-25T23:06:09.162Z,3.30
2018-08-25T23:08:37.537Z,3.10
2018-08-25T23:11:05.915Z,3.13
2018-08-25T23:13:34.229Z,3.57
2018-08-25T23:16:02.579Z,2.80
2018-08-25T23:18:30.943Z,4.03
2018-08-25T23:20:59.380Z,5.33
2018-08-25T23:23:27.837Z,4.30
2018-08-25T23:25:56.196Z,4.53
2018-08-25T23:28:24.582Z,5.13
2018-08-25T23:30:53.031Z,5.23
2018-08-25T23:33:21.431Z,5.03
2018-08-25T23:35:49.789Z,4.60
2018-08-25T23:38:18.123Z,4.77
2018-08-25T23:40:46.529Z,4.97
2018-08-25T23:43:14.898Z,4.27
2018-08-25T23:45:43.406Z,4.87
2018-08-25T23:48:11.838Z,4.90
2018-08-25T23:50:40.209Z,4.67
2018-08-25T23:53:08.735Z,4.23
2018-08-25T23:55:37.052Z,5.50
2018-08-25T23:58:05.651Z,4.93
